Pagrindinis puslapis
METAR-TAF:

METAR-TAF

Oro uostai :

Batmanas, Turkija

platuma: 37-52N, ilguma: 041-10E, Aukštis: 540 m

Dabartinis oras

Ataskaita buvo paskelbta 39 minutes, ne 22:50 UTC
Vėjas 3 kt iš Šiaurės Rytų
Temperatūra 14°C
Drėgmė 77%
Slėgis 1016 hPa
Matomumas 10 km arba daugiau
nėra debesų žemiau 1500 m ir nėra kamuolinių lietaus debesų

METAR: LTCJ 052250Z 05003KT CAVOK 14/10 Q1016 RMK RWY20 06003KT

Laikas: 02:29 (23:29 UTC)

Prognozė

Ataskaita buvo paskelbta 6 valandos ir 49 minutes, ne 16:40 UTC
Prognozė galioja nuo 05 metu 18 UTC su 06 metu 18 UTC
Vėjas 2 kt nuo kintamojo kryptimis
Matomumas 10 km arba daugiau
nėra debesų žemiau 1500 m ir nėra kamuolinių lietaus debesų

TAF: LTCJ 051640Z 0518/0618 VRB02KT CAVOK

Orai ataskaitas ir orų prognozės (METAR, TAF).

turimą stotys yra geltonos ir raudonos taškus žemėlapyje.

Perkelti pele per norėdami pamatyti stoties vardą.

Tada spustelėkite, norėdami matyti oro stebėjimo ir prognozės.

Norėdami pakeisti žemėlapį: spustelėkite ant žalios mygtukų su juodo kryžiaus žemyn,; žalią mygtuką su brūkšneliu, jei norite nutolinti; arba žalių rodyklių gretimoms žemėlapius.


METAR-TAF: